Time;durP1;ratioP1;P1;durP2;ratioP2;P2;SDS_P1;SDS_P2;PMS_P1;PMS_P2;Temp;Humidity;BMP_temperature;BMP_pressure;BME280_temperature;BME280_humidity;BME280_pressure;Samples;Min_cycle;Max_cycle;Signal;HPM_P1;HPM_P2
2022/08/23 00:01:38;;;;;;;9.45;4.70;;;;;;;19.85;100.00;101369.44;5038238;28;20033;-74
2022/08/23 00:04:13;;;;;;;8.50;4.25;;;;;;;19.86;100.00;101376.56;5035410;28;20036;-74
2022/08/23 00:06:39;;;;;;;12.75;4.88;;;;;;;19.75;100.00;101367.75;5036066;28;20022;-74
2022/08/23 00:09:05;;;;;;;8.65;4.45;;;;;;;19.71;100.00;101369.59;5045817;28;20033;-76
2022/08/23 00:11:33;;;;;;;6.53;4.43;;;;;;;19.70;100.00;101381.16;5036203;28;20025;-74
2022/08/23 00:14:08;;;;;;;8.50;4.47;;;;;;;19.69;100.00;101387.41;5034540;28;20099;-74
2022/08/23 00:16:34;;;;;;;12.25;4.45;;;;;;;19.67;100.00;101381.22;5040816;28;20025;-74
2022/08/23 00:19:00;;;;;;;8.82;4.53;;;;;;;19.68;100.00;101377.63;5050304;28;20021;-75
2022/08/23 00:21:28;;;;;;;14.25;4.10;;;;;;;19.65;100.00;101375.00;5049272;28;20056;-73
2022/08/23 00:23:54;;;;;;;8.48;4.55;;;;;;;19.61;100.00;101371.47;5038200;28;20021;-75
2022/08/23 00:26:20;;;;;;;10.25;4.80;;;;;;;19.56;100.00;101376.00;5044866;28;20018;-74
2022/08/23 00:28:47;;;;;;;9.20;4.45;;;;;;;19.51;100.00;101380.50;5040633;28;20429;-74
2022/08/23 00:31:12;;;;;;;9.50;3.80;;;;;;;19.44;100.00;101377.03;5037289;28;20052;-74
2022/08/23 00:33:38;;;;;;;9.07;4.25;;;;;;;19.37;100.00;101375.31;5052301;28;20025;-74
2022/08/23 00:36:03;;;;;;;9.18;4.63;;;;;;;19.41;100.00;101379.75;5042316;28;20030;-74
2022/08/23 00:38:28;;;;;;;10.00;4.30;;;;;;;19.41;100.00;101382.41;5045244;28;20416;-74
2022/08/23 00:40:55;;;;;;;7.57;3.92;;;;;;;19.38;100.00;101380.66;5039090;28;20028;-74
2022/08/23 00:49:16;;;;;;;10.00;4.22;;;;;;;19.24;100.00;101371.91;5034617;28;20052;-75
2022/08/23 00:51:56;;;;;;;14.35;4.97;;;;;;;19.24;100.00;101365.72;5036433;28;20060;-75
2022/08/23 00:54:26;;;;;;;7.35;4.32;;;;;;;19.36;100.00;101360.22;5035889;28;20025;-75
2022/08/23 00:56:53;;;;;;;12.90;4.22;;;;;;;19.38;100.00;101367.31;5034684;28;20458;-74
2022/08/23 00:59:19;;;;;;;9.68;4.88;;;;;;;19.37;100.00;101369.97;5042771;28;20025;-75
2022/08/23 01:01:45;;;;;;;9.52;4.20;;;;;;;19.31;100.00;101364.72;5034846;28;20061;-74
2022/08/23 01:04:11;;;;;;;6.80;4.10;;;;;;;19.30;100.00;101357.63;5035360;28;20103;-75
2022/08/23 01:06:46;;;;;;;8.73;4.35;;;;;;;19.33;100.00;101360.25;5036317;28;20021;-74
2022/08/23 01:09:16;;;;;;;10.10;4.20;;;;;;;19.30;100.00;101354.94;5049117;28;20028;-74
2022/08/23 01:11:52;;;;;;;13.38;4.20;;;;;;;19.34;100.00;101367.34;5033984;28;20029;-74
2022/08/23 01:14:24;;;;;;;9.35;3.83;;;;;;;19.39;100.00;101370.84;5033922;28;20037;-74
2022/08/23 01:17:05;;;;;;;7.60;4.20;;;;;;;19.40;100.00;101367.28;5042527;28;20024;-74
2022/08/23 01:19:38;;;;;;;10.38;4.55;;;;;;;19.37;100.00;101372.66;5048570;28;20040;-74
2022/08/23 01:22:08;;;;;;;10.05;4.32;;;;;;;19.34;100.00;101372.69;5034630;28;20420;-75
2022/08/23 01:24:34;;;;;;;9.07;4.32;;;;;;;19.35;100.00;101374.47;5049442;28;20052;-75
2022/08/23 01:26:59;;;;;;;9.23;4.20;;;;;;;19.35;100.00;101374.47;5034608;28;20029;-75
2022/08/23 01:29:24;;;;;;;9.43;4.30;;;;;;;19.35;100.00;101369.13;5034582;28;20022;-75
2022/08/23 01:31:50;;;;;;;8.23;4.15;;;;;;;19.38;100.00;101369.09;5044768;28;20032;-75
2022/08/23 01:34:17;;;;;;;7.53;3.60;;;;;;;19.42;100.00;101370.81;5037457;28;20031;-75
2022/08/23 01:36:44;;;;;;;7.25;4.18;;;;;;;19.47;100.00;101363.63;5036053;28;20104;-74
2022/08/23 01:39:10;;;;;;;6.20;3.72;;;;;;;19.53;100.00;101354.66;5049473;28;20025;-74
2022/08/23 01:41:37;;;;;;;8.35;3.75;;;;;;;19.55;100.00;101364.44;5041104;28;20075;-75
2022/08/23 01:44:04;;;;;;;10.98;4.80;;;;;;;19.61;100.00;101360.78;5039645;28;20112;-75
2022/08/23 01:46:31;;;;;;;6.45;3.55;;;;;;;19.67;100.00;101362.53;5043220;28;20025;-75
2022/08/23 01:48:57;;;;;;;11.40;3.90;;;;;;;19.68;100.00;101362.50;5034579;28;20036;-75
2022/08/23 01:51:23;;;;;;;8.40;3.90;;;;;;;19.68;100.00;101350.91;5038170;28;20029;-75
2022/08/23 01:53:49;;;;;;;9.13;3.58;;;;;;;19.63;100.00;101345.66;5033393;28;20040;-74
2022/08/23 01:56:18;;;;;;;6.80;3.78;;;;;;;19.60;100.00;101340.38;5042425;28;20362;-75
2022/08/23 01:58:44;;;;;;;6.28;3.60;;;;;;;19.59;100.00;101348.38;5040554;28;20024;-74
2022/08/23 02:01:09;;;;;;;10.45;3.70;;;;;;;19.58;100.00;101342.16;5048523;28;20029;-75
2022/08/23 02:03:36;;;;;;;5.28;3.38;;;;;;;19.60;100.00;101347.47;5034316;28;20487;-75
2022/08/23 02:06:01;;;;;;;10.57;4.18;;;;;;;19.60;100.00;101351.03;5034613;28;20389;-75
2022/08/23 02:11:11;;;;;;;;;;;;;;;19.62;100.00;101351.00;5040942;28;20132;-75
2022/08/23 02:13:37;;;;;;;7.03;3.90;;;;;;;19.61;100.00;101351.91;5049325;28;19920;-75
2022/08/23 02:16:02;;;;;;;6.40;3.95;;;;;;;19.60;100.00;101356.38;5034683;28;20029;-74
2022/08/23 02:18:28;;;;;;;16.08;4.18;;;;;;;19.61;100.00;101354.59;5047482;28;20111;-74
2022/08/23 02:20:54;;;;;;;9.30;4.65;;;;;;;19.63;100.00;101355.44;5048699;28;20036;-74
2022/08/23 02:23:21;;;;;;;11.60;4.85;;;;;;;19.66;100.00;101355.41;5033733;28;20022;-75
2022/08/23 02:25:46;;;;;;;8.52;4.15;;;;;;;19.67;100.00;101349.19;5036723;28;20021;-75
2022/08/23 02:28:12;;;;;;;9.10;4.88;;;;;;;19.69;100.00;101355.34;5043501;28;20447;-75
2022/08/23 02:30:38;;;;;;;6.88;5.10;;;;;;;19.69;100.00;101352.69;5045826;28;20040;-76
2022/08/23 02:33:04;;;;;;;9.68;5.47;;;;;;;19.70;100.00;101357.13;5051315;28;20041;-75
2022/08/23 02:35:32;;;;;;;11.05;5.25;;;;;;;19.71;100.00;101351.78;5050310;28;20124;-75
2022/08/23 02:37:57;;;;;;;6.80;5.10;;;;;;;19.74;100.00;101361.53;5052850;28;20041;-75
2022/08/23 02:40:23;;;;;;;15.70;5.50;;;;;;;19.76;100.00;101354.38;5043216;28;20028;-75
2022/08/23 02:42:48;;;;;;;6.78;4.85;;;;;;;19.76;100.00;101358.84;5048383;28;20128;-75
2022/08/23 02:45:14;;;;;;;8.77;4.68;;;;;;;19.76;100.00;101354.38;5041596;28;20049;-74
2022/08/23 02:47:40;;;;;;;9.07;4.75;;;;;;;19.77;100.00;101361.47;5042757;28;20054;-74
2022/08/23 02:50:07;;;;;;;8.10;4.95;;;;;;;19.75;100.00;101363.31;5036623;28;20396;-75
2022/08/23 02:52:33;;;;;;;10.98;4.53;;;;;;;19.75;100.00;101368.66;5044019;28;20108;-75
2022/08/23 02:54:59;;;;;;;10.30;4.93;;;;;;;19.69;100.00;101363.38;5039291;28;20471;-76
2022/08/23 02:57:25;;;;;;;10.13;4.60;;;;;;;19.67;100.00;101365.19;5036610;28;20100;-75
2022/08/23 02:59:51;;;;;;;10.57;5.35;;;;;;;19.64;100.00;101370.56;5047312;28;20070;-74
2022/08/23 03:02:17;;;;;;;10.43;5.10;;;;;;;19.67;100.00;101370.53;5050018;28;20029;-75
2022/08/23 03:04:42;;;;;;;10.95;4.85;;;;;;;19.68;100.00;101358.94;5055011;28;20040;-74
2022/08/23 03:07:08;;;;;;;12.07;5.38;;;;;;;19.68;100.00;101370.50;5045004;28;20500;-75
2022/08/23 03:09:33;;;;;;;7.03;4.15;;;;;;;19.70;100.00;101370.47;5054376;28;22126;-75
2022/08/23 03:11:58;;;;;;;8.20;5.10;;;;;;;19.67;100.00;101367.88;5036745;28;20030;-75
2022/08/23 03:14:24;;;;;;;9.88;5.00;;;;;;;19.67;100.00;101363.41;5041894;28;20065;-75
2022/08/23 03:16:50;;;;;;;13.50;5.00;;;;;;;19.73;100.00;101362.44;5042973;28;20502;-74
2022/08/23 03:19:15;;;;;;;9.77;4.40;;;;;;;19.75;100.00;101371.31;5041595;28;20385;-74
2022/08/23 03:21:42;;;;;;;10.50;4.80;;;;;;;19.81;100.00;101367.72;5051011;28;20029;-74
2022/08/23 03:24:07;;;;;;;7.88;4.82;;;;;;;19.88;100.00;101369.38;5043798;28;20083;-75
2022/08/23 03:26:33;;;;;;;11.57;4.13;;;;;;;19.88;100.00;101364.91;5051595;28;20384;-75
2022/08/23 03:28:58;;;;;;;9.30;4.97;;;;;;;19.85;100.00;101359.63;5043520;28;20029;-76
2022/08/23 03:31:24;;;;;;;8.27;4.70;;;;;;;19.83;100.00;101366.78;5039132;28;20040;-74
2022/08/23 03:33:50;;;;;;;6.68;4.40;;;;;;;19.79;100.00;101359.69;5037473;28;20029;-75
2022/08/23 03:36:15;;;;;;;10.43;4.50;;;;;;;19.74;100.00;101361.53;5051407;28;20044;-76
2022/08/23 03:38:41;;;;;;;9.57;4.40;;;;;;;19.72;100.00;101363.31;5054306;28;20128;-76
2022/08/23 03:41:07;;;;;;;10.02;4.40;;;;;;;19.68;100.00;101361.59;5054480;28;20025;-75
2022/08/23 03:43:33;;;;;;;8.60;4.13;;;;;;;19.66;100.00;101368.75;5047320;28;20094;-75
2022/08/23 03:45:59;;;;;;;12.15;4.70;;;;;;;19.63;100.00;101371.44;5052308;28;20052;-75
2022/08/23 03:48:25;;;;;;;10.93;4.47;;;;;;;19.61;100.00;101367.94;5052127;28;20071;-75
2022/08/23 03:50:50;;;;;;;9.15;4.97;;;;;;;19.60;100.00;101372.41;5048257;28;20025;-75
2022/08/23 03:53:16;;;;;;;8.40;4.60;;;;;;;19.58;100.00;101373.31;5052660;28;20029;-75
2022/08/23 03:55:43;;;;;;;11.38;4.60;;;;;;;19.58;100.00;101373.31;5045772;28;20059;-75
2022/08/23 03:58:10;;;;;;;10.13;4.45;;;;;;;19.49;100.00;101383.22;5050216;28;20583;-76
2022/08/23 04:00:35;;;;;;;7.15;3.95;;;;;;;19.45;100.00;101375.22;5048059;28;20397;-74
2022/08/23 04:03:00;;;;;;;7.53;4.07;;;;;;;19.38;100.00;101379.75;5049466;28;20029;-76
2022/08/23 04:05:26;;;;;;;12.60;4.10;;;;;;;19.35;100.00;101375.34;5044208;28;20021;-76
2022/08/23 04:07:52;;;;;;;6.80;4.10;;;;;;;19.29;100.00;101379.84;5036719;28;20049;-75
2022/08/23 04:10:17;;;;;;;9.60;4.03;;;;;;;19.18;100.00;101378.22;5037183;28;20056;-75
2022/08/23 04:12:43;;;;;;;9.02;4.38;;;;;;;19.13;100.00;101380.03;5038412;28;20025;-75
2022/08/23 04:15:09;;;;;;;7.35;4.30;;;;;;;19.06;100.00;101378.34;5054247;28;20032;-75
2022/08/23 04:17:35;;;;;;;7.70;4.55;;;;;;;18.99;100.00;101382.84;5055161;28;20051;-75
2022/08/23 04:20:02;;;;;;;10.43;4.88;;;;;;;18.96;100.00;101393.53;5049116;28;20534;-75
2022/08/23 04:22:28;;;;;;;8.93;4.72;;;;;;;18.93;100.00;101392.69;5054843;28;20048;-76
2022/08/23 04:24:54;;;;;;;9.48;4.70;;;;;;;18.87;100.00;101391.81;5050437;28;20055;-76
2022/08/23 04:27:20;;;;;;;12.90;4.80;;;;;;;18.83;100.00;101384.72;5046938;28;20407;-75
2022/08/23 04:29:46;;;;;;;9.98;4.95;;;;;;;18.80;100.00;101391.88;5046221;28;20068;-75
2022/08/23 04:32:13;;;;;;;11.73;5.88;;;;;;;18.78;100.00;101394.56;5037375;28;20424;-75
2022/08/23 04:34:39;;;;;;;13.68;6.32;;;;;;;18.74;100.00;101387.47;5053890;28;20074;-76
2022/08/23 04:37:05;;;;;;;9.68;5.18;;;;;;;18.70;100.00;101393.72;5048224;28;20024;-75
2022/08/23 04:42:16;;;;;;;12.20;6.60;;;;;;;18.67;100.00;101391.09;5047984;28;20037;-75
2022/08/23 04:42:18;;;;;;;11.38;5.90;;;;;;;18.67;100.00;101391.97;5034937;28;20029;-76
2022/08/23 04:44:44;;;;;;;11.88;5.70;;;;;;;18.65;100.00;101392.88;5040310;28;20033;-75
2022/08/23 04:47:09;;;;;;;7.38;4.75;;;;;;;18.64;100.00;101391.13;5050811;28;20070;-76
2022/08/23 04:49:35;;;;;;;8.93;6.03;;;;;;;18.65;100.00;101387.53;5047487;28;20112;-76
2022/08/23 04:52:00;;;;;;;10.25;5.20;;;;;;;18.60;100.00;101386.69;5045338;28;20061;-77
2022/08/23 04:54:28;;;;;;;11.02;4.75;;;;;;;18.58;100.00;101393.84;5049673;28;20526;-75
2022/08/23 04:56:53;;;;;;;11.73;5.00;;;;;;;18.57;100.00;101394.72;5054177;28;20086;-75
2022/08/23 04:59:18;;;;;;;13.85;6.22;;;;;;;18.57;100.00;101400.97;5046328;28;20427;-75
2022/08/23 05:01:44;;;;;;;14.00;5.18;;;;;;;18.60;100.00;101400.03;5047439;28;20036;-76
2022/08/23 05:04:09;;;;;;;14.55;5.78;;;;;;;18.63;100.00;101410.69;5047005;28;20507;-75
2022/08/23 05:06:35;;;;;;;11.98;5.82;;;;;;;18.67;100.00;101412.44;5035706;28;20036;-73
2022/08/23 05:09:00;;;;;;;10.35;5.38;;;;;;;18.76;100.00;101416.78;5051458;28;20029;-75
2022/08/23 05:11:27;;;;;;;10.73;4.85;;;;;;;18.78;100.00;101415.00;5044676;28;20445;-75
2022/08/23 05:13:53;;;;;;;10.48;4.63;;;;;;;18.79;100.00;101412.31;5046315;28;20071;-76
2022/08/23 05:16:19;;;;;;;9.40;5.07;;;;;;;18.77;100.00;101418.56;5039074;28;20025;-76
2022/08/23 05:18:44;;;;;;;9.07;5.10;;;;;;;18.75;100.00;101409.72;5034125;28;20108;-75
2022/08/23 05:21:17;;;;;;;10.45;5.38;;;;;;;18.74;100.00;101419.47;5045835;28;20033;-75
2022/08/23 05:23:43;;;;;;;9.73;5.00;;;;;;;18.73;100.00;101416.81;5041821;28;20384;-75
2022/08/23 05:26:10;;;;;;;9.57;4.22;;;;;;;18.72;100.00;101418.63;5037914;28;20420;-75
2022/08/23 05:28:38;;;;;;;11.13;5.65;;;;;;;18.71;100.00;101416.84;5033934;28;20029;-75
2022/08/23 05:31:17;;;;;;;11.77;5.53;;;;;;;18.68;100.00;101416.88;5041149;28;20029;-71
2022/08/23 05:33:43;;;;;;;14.75;6.60;;;;;;;18.67;100.00;101421.28;5049365;28;20021;-70
2022/08/23 05:36:10;;;;;;;16.65;6.43;;;;;;;18.73;100.00;101423.03;5051067;28;20033;-72
2022/08/23 05:38:37;;;;;;;13.93;5.88;;;;;;;18.80;100.00;101424.75;5036500;28;20068;-72
2022/08/23 05:41:03;;;;;;;10.63;5.70;;;;;;;18.84;100.00;101421.19;5038477;28;20362;-72
2022/08/23 05:43:30;;;;;;;11.18;5.30;;;;;;;18.95;100.00;101426.44;5040667;28;20021;-72
2022/08/23 05:46:09;;;;;;;18.95;6.25;;;;;;;18.97;100.00;101426.44;5044741;28;20048;-72
2022/08/23 05:48:36;;;;;;;10.60;5.70;;;;;;;19.01;100.00;101428.16;5042606;28;20020;-73
2022/08/23 05:51:29;;;;;;;10.15;5.15;;;;;;;18.98;100.00;101429.09;5041441;28;20063;-72
2022/08/23 05:54:00;;;;;;;13.63;6.50;;;;;;;18.95;100.00;101429.13;5035726;28;20119;-72
2022/08/23 05:56:32;;;;;;;17.35;6.55;;;;;;;18.92;100.00;101433.56;5045653;28;20059;-72
2022/08/23 05:58:59;;;;;;;11.55;5.90;;;;;;;18.89;100.00;101430.94;5043232;28;20100;-73
2022/08/23 06:01:26;;;;;;;16.23;6.20;;;;;;;18.92;100.00;101444.25;5038481;28;20041;-71
2022/08/23 06:03:52;;;;;;;19.25;6.47;;;;;;;18.96;100.00;101440.66;5033178;28;20473;-72
2022/08/23 06:06:17;;;;;;;20.98;5.75;;;;;;;19.02;100.00;101449.50;5034941;28;20024;-72
2022/08/23 06:08:47;;;;;;;13.27;6.40;;;;;;;19.10;100.00;101449.44;5041761;28;20057;-73
2022/08/23 06:11:19;;;;;;;13.05;6.10;;;;;;;19.16;100.00;101444.03;5034295;28;20393;-73
2022/08/23 06:13:48;;;;;;;15.90;7.03;;;;;;;19.25;100.00;101443.06;5043966;28;20473;-72
2022/08/23 06:16:15;;;;;;;16.13;7.63;;;;;;;19.36;100.00;101445.63;5045580;28;20056;-73
2022/08/23 06:18:41;;;;;;;15.38;7.05;;;;;;;19.45;100.00;101448.19;5050043;28;20104;-74
2022/08/23 06:21:10;;;;;;;12.48;7.32;;;;;;;19.57;100.00;101449.84;5038577;28;20036;-72
2022/08/23 06:23:37;;;;;;;18.23;7.22;;;;;;;19.66;100.00;101443.50;5034895;28;20409;-72
2022/08/23 06:26:10;;;;;;;19.00;7.70;;;;;;;19.74;100.00;101440.72;5036147;28;20472;-72
2022/08/23 06:28:36;;;;;;;16.92;6.93;;;;;;;19.79;100.00;101445.16;5039056;28;20029;-72
2022/08/23 06:31:01;;;;;;;17.85;8.13;;;;;;;19.87;100.00;101437.94;5039404;28;20114;-72
2022/08/23 06:33:26;;;;;;;13.75;7.97;;;;;;;19.97;100.00;101443.19;5038300;28;20499;-73
2022/08/23 06:36:06;;;;;;;17.80;7.13;;;;;;;20.07;100.00;101436.78;5039446;28;20026;-72
2022/08/23 06:38:33;;;;;;;18.13;7.68;;;;;;;20.16;100.00;101439.34;5044379;28;20025;-70
2022/08/23 06:41:01;;;;;;;16.33;7.63;;;;;;;20.25;100.00;101440.13;5060877;28;20028;-70
2022/08/23 06:43:26;;;;;;;12.98;6.93;;;;;;;20.34;100.00;101442.66;5059213;28;20041;-72
2022/08/23 06:45:52;;;;;;;17.90;7.07;;;;;;;20.43;100.00;101445.22;5058196;28;20013;-71
2022/08/23 06:48:17;;;;;;;17.08;6.57;;;;;;;20.54;100.00;101445.91;5071343;28;20028;-72
2022/08/23 06:50:42;;;;;;;16.40;7.07;;;;;;;20.64;100.00;101445.78;5064651;28;20159;-71
2022/08/23 06:53:08;;;;;;;13.93;6.50;;;;;;;20.73;100.00;101448.34;5059865;28;20434;-73
2022/08/23 06:55:33;;;;;;;10.05;4.53;;;;;;;20.86;100.00;101451.69;5046367;28;20500;-72
2022/08/23 06:57:58;;;;;;;8.38;4.50;;;;;;;20.97;100.00;101449.75;5050257;28;20056;-72
2022/08/23 07:00:24;;;;;;;7.70;3.97;;;;;;;21.09;100.00;101459.31;5043597;28;20115;-74
2022/08/23 07:02:49;;;;;;;10.32;4.05;;;;;;;21.21;100.00;101456.44;5045139;28;20029;-75
2022/08/23 07:05:14;;;;;;;10.10;4.78;;;;;;;21.32;100.00;101447.31;5037953;28;20025;-72
2022/08/23 07:07:40;;;;;;;8.55;4.93;;;;;;;21.40;100.00;101453.41;5037019;28;20041;-73
2022/08/23 07:10:06;;;;;;;8.57;4.38;;;;;;;21.46;100.00;101458.66;5050157;28;20024;-74
2022/08/23 07:12:31;;;;;;;9.13;5.13;;;;;;;21.56;100.00;101460.28;5040084;28;20021;-74
2022/08/23 07:14:57;;;;;;;12.73;4.00;;;;;;;21.65;100.00;101455.66;5037873;28;20034;-73
2022/08/23 07:17:22;;;;;;;10.45;5.20;;;;;;;21.74;100.00;101471.53;5048604;28;20087;-74
2022/08/23 07:19:48;;;;;;;7.70;3.60;;;;;;;21.83;100.00;101468.69;5042243;28;20060;-72
2022/08/23 07:22:13;;;;;;;12.00;4.68;;;;;;;21.91;100.00;101468.53;5053725;28;20532;-73
2022/08/23 07:24:38;;;;;;;10.05;4.60;;;;;;;21.96;100.00;101469.31;5049065;28;20099;-72
2022/08/23 07:27:05;;;;;;;10.88;4.78;;;;;;;22.01;100.00;101471.91;5057351;28;20420;-72
2022/08/23 07:29:32;;;;;;;7.65;3.88;;;;;;;22.07;100.00;101471.78;5058881;28;20025;-72
2022/08/23 07:31:57;;;;;;;9.27;3.70;;;;;;;22.14;100.00;101473.41;5068784;28;20031;-73
2022/08/23 07:34:24;;;;;;;12.63;4.18;;;;;;;22.19;100.00;101476.88;5054001;28;20104;-73
2022/08/23 07:36:51;;;;;;;9.07;3.35;;;;;;;22.23;100.00;101470.53;5035446;28;20446;-73
2022/08/23 07:39:19;;;;;;;8.38;3.58;;;;;;;22.23;100.00;101472.31;5043056;28;20027;-74
2022/08/23 07:41:45;;;;;;;7.88;3.03;;;;;;;22.31;100.00;101477.50;5055984;28;20021;-71
2022/08/23 07:44:11;;;;;;;6.53;3.90;;;;;;;22.36;100.00;101478.31;5052020;28;20108;-73
2022/08/23 07:46:39;;;;;;;7.50;3.67;;;;;;;22.43;100.00;101474.56;5038606;28;20584;-73
2022/08/23 07:49:06;;;;;;;11.20;3.00;;;;;;;22.54;100.00;101474.31;5036222;28;20103;-74
2022/08/23 07:51:33;;;;;;;7.63;2.78;;;;;;;22.66;100.00;101481.22;5034467;28;20033;-73
2022/08/23 07:54:01;;;;;;;5.00;2.22;;;;;;;22.77;100.00;101484.50;5051935;28;20037;-74
2022/08/23 07:56:27;;;;;;;5.95;1.83;;;;;;;22.88;100.00;101479.78;5040069;28;20041;-73
2022/08/23 07:58:53;;;;;;;5.13;2.22;;;;;;;22.99;100.00;101483.97;5053902;28;20496;-72
2022/08/23 08:01:22;;;;;;;8.43;2.60;;;;;;;23.08;100.00;101479.25;5050046;28;20037;-73
2022/08/23 08:03:53;;;;;;;3.95;1.80;;;;;;;23.17;100.00;101478.19;5040629;28;20074;-73
2022/08/23 08:06:29;;;;;;;6.55;2.40;;;;;;;23.23;100.00;101479.81;5042849;28;20063;-73
2022/08/23 08:08:56;;;;;;;2.88;1.73;;;;;;;23.37;100.00;101484.81;5054057;28;20098;-73
2022/08/23 08:11:24;;;;;;;4.65;1.70;;;;;;;23.55;100.00;101494.22;5053804;28;20029;-74
2022/08/23 08:13:50;;;;;;;6.93;2.30;;;;;;;23.73;100.00;101498.19;5053985;28;20021;-73
2022/08/23 08:16:27;;;;;;;5.60;2.42;;;;;;;23.94;100.00;101496.72;5040576;28;20469;-73
2022/08/23 08:18:54;;;;;;;8.98;3.08;;;;;;;24.17;100.00;101503.22;5040015;28;20025;-73
2022/08/23 08:21:20;;;;;;;6.82;2.97;;;;;;;24.37;100.00;101505.31;5033445;28;20131;-72
2022/08/23 08:23:45;;;;;;;6.25;2.50;;;;;;;24.53;100.00;101506.59;5034872;28;20086;-73
2022/08/23 08:26:12;;;;;;;7.70;3.00;;;;;;;24.65;100.00;101507.16;5063686;28;20028;-72
2022/08/23 08:28:39;;;;;;;8.40;3.17;;;;;;;24.77;100.00;101514.88;5074895;28;20028;-73
2022/08/23 08:31:05;;;;;;;6.65;3.20;;;;;;;24.69;100.00;101516.94;5039318;28;20117;-73
2022/08/23 08:33:31;;;;;;;8.15;2.80;;;;;;;24.74;100.00;101509.56;5035736;28;20072;-72
2022/08/23 08:35:57;;;;;;;9.18;2.30;;;;;;;24.80;100.00;101514.75;5042690;28;20115;-74
2022/08/23 08:38:23;;;;;;;5.82;2.42;;;;;;;24.89;100.00;101514.47;5052205;28;20057;-73
2022/08/23 08:41:16;;;;;;;7.63;2.42;;;;;;;24.88;100.00;101523.47;5043025;28;20484;-72
2022/08/23 08:44:18;;;;;;;8.65;2.13;;;;;;;24.97;100.00;101524.09;5052591;28;20041;-73
2022/08/23 08:46:47;;;;;;;6.20;2.65;;;;;;;24.83;100.00;101520.03;5047682;28;20037;-73
2022/08/23 08:49:29;;;;;;;9.43;2.55;;;;;;;24.82;100.00;101523.66;5033815;28;20388;-72
2022/08/23 08:52:01;;;;;;;4.77;2.00;;;;;;;24.96;100.00;101523.22;5033885;28;20384;-72
2022/08/23 08:54:28;;;;;;;8.38;2.60;;;;;;;24.99;100.00;101522.25;5035473;28;20355;-73
2022/08/23 08:56:56;;;;;;;6.18;2.08;;;;;;;25.10;100.00;101516.50;5054362;28;20056;-73
2022/08/23 08:59:29;;;;;;;10.55;2.20;;;;;;;25.20;100.00;101526.00;5054155;28;20028;-73
2022/08/23 09:01:56;;;;;;;4.70;2.28;;;;;;;25.25;100.00;101522.22;5052691;28;20059;-73
2022/08/23 09:04:22;;;;;;;8.10;2.28;;;;;;;25.29;100.00;101519.44;5052521;28;20029;-74
2022/08/23 09:07:04;;;;;;;5.68;1.98;;;;;;;25.29;100.00;101525.72;5034322;28;20028;-73
2022/08/23 09:09:39;;;;;;;6.65;2.30;;;;;;;25.17;100.00;101529.69;5034148;28;20061;-75
2022/08/23 09:12:28;;;;;;;4.20;1.70;;;;;;;25.22;100.00;101529.56;5034302;28;20032;-73
2022/08/23 09:15:01;;;;;;;7.53;1.98;;;;;;;25.27;100.00;101534.78;5039609;28;20033;-71
2022/08/23 09:17:43;;;;;;;4.05;1.83;;;;;;;25.18;100.00;101531.47;5049937;28;20094;-71
2022/08/23 09:20:13;;;;;;;6.28;1.95;;;;;;;25.27;100.00;101529.38;5062723;28;20377;-71
2022/08/23 09:22:44;;;;;;;6.18;1.75;;;;;;;25.27;100.00;101530.25;5063705;28;20361;-72
2022/08/23 09:25:12;;;;;;;8.27;2.03;;;;;;;25.24;100.00;101536.66;5058933;28;20119;-71
2022/08/23 09:27:40;;;;;;;5.72;2.10;;;;;;;25.23;100.00;101532.19;5073930;28;20044;-73
2022/08/23 09:30:06;;;;;;;8.50;2.35;;;;;;;25.12;100.00;101530.78;5037517;28;20072;-73
2022/08/23 09:32:34;;;;;;;13.32;2.60;;;;;;;25.14;100.00;101534.31;5035932;28;20109;-73
2022/08/23 09:35:16;;;;;;;7.03;2.15;;;;;;;25.18;100.00;101533.28;5034958;28;20037;-74
2022/08/23 09:38:00;;;;;;;6.28;2.53;;;;;;;25.19;100.00;101538.63;5033753;28;20025;-73
2022/08/23 09:40:34;;;;;;;4.32;1.90;;;;;;;25.23;100.00;101540.28;5040069;28;20091;-74
2022/08/23 09:43:11;;;;;;;4.10;1.60;;;;;;;25.29;100.00;101535.63;5048389;28;20064;-74
2022/08/23 09:45:41;;;;;;;6.22;2.20;;;;;;;25.05;100.00;101535.50;5046106;28;20025;-74
2022/08/23 09:48:12;;;;;;;9.57;2.97;;;;;;;24.97;100.00;101537.56;5034393;28;20032;-73
2022/08/23 09:50:46;;;;;;;4.95;2.28;;;;;;;25.04;100.00;101533.72;5046979;28;20021;-73
2022/08/23 09:53:14;;;;;;;11.68;2.42;;;;;;;25.14;100.00;101532.50;5053760;28;20067;-73
2022/08/23 09:55:48;;;;;;;11.07;2.45;;;;;;;25.38;100.00;101538.00;5032275;28;20025;-73
2022/08/23 09:58:31;;;;;;;6.70;1.85;;;;;;;25.55;100.00;101535.59;5033255;28;20057;-73
2022/08/23 10:01:05;;;;;;;5.85;2.20;;;;;;;25.80;100.00;101534.75;5033665;28;20028;-73
2022/08/23 10:03:30;;;;;;;18.35;3.17;;;;;;;26.00;100.00;101535.81;5033152;28;20033;-73
2022/08/23 10:05:59;;;;;;;3.65;2.13;;;;;;;26.13;100.00;101526.38;5047326;28;20032;-73
2022/08/23 10:08:32;;;;;;;9.18;2.40;;;;;;;26.16;100.00;101525.38;5052967;28;20045;-73
2022/08/23 10:11:17;;;;;;;9.90;2.17;;;;;;;26.11;100.00;101524.66;5039179;28;20040;-72
2022/08/23 10:13:43;;;;;;;11.32;2.70;;;;;;;26.09;100.00;101527.41;5035550;28;20110;-73
2022/08/23 10:16:24;;;;;;;6.88;2.67;;;;;;;26.07;100.00;101518.50;5043794;28;20421;-73
2022/08/23 10:19:09;;;;;;;5.25;2.75;;;;;;;26.20;100.00;101521.63;5033768;28;20120;-73
2022/08/23 10:21:37;;;;;;;8.00;2.80;;;;;;;26.27;100.00;101517.72;5042603;28;20101;-71
2022/08/23 10:24:21;;;;;;;13.35;2.70;;;;;;;26.42;100.00;101516.25;5044019;28;20044;-73
2022/08/23 10:30:22;;;;;;;3.58;1.50;;;;;;;26.67;98.21;101515.28;5052142;28;20047;-72
2022/08/23 10:32:59;;;;;;;6.05;2.10;;;;;;;26.78;96.73;101515.75;5046025;28;20053;-73
2022/08/23 10:35:25;;;;;;;10.57;2.20;;;;;;;26.97;93.42;101509.59;5033010;28;20071;-73
2022/08/23 10:38:28;;;;;;;4.35;1.30;;;;;;;26.95;84.97;101519.59;5037106;28;20025;-72
2022/08/23 10:41:31;;;;;;;1.58;1.10;;;;;;;26.82;81.67;101516.50;5034142;28;20401;-74
2022/08/23 10:44:42;;;;;;;4.32;1.40;;;;;;;26.88;80.90;101525.22;5032212;28;20053;-74
2022/08/23 10:47:16;;;;;;;7.65;1.58;;;;;;;27.15;82.87;101507.94;5054115;28;20041;-72
2022/08/23 10:49:45;;;;;;;5.95;1.35;;;;;;;27.19;80.99;101517.69;5061077;28;20021;-71
2022/08/23 10:52:19;;;;;;;3.22;1.20;;;;;;;27.33;81.91;101514.38;5056637;28;20032;-74
2022/08/23 10:55:00;;;;;;;8.43;1.90;;;;;;;27.48;77.25;101519.13;5063425;28;20033;-72
2022/08/23 10:57:36;;;;;;;6.55;1.60;;;;;;;27.39;76.95;101514.16;5060245;28;21036;-72
2022/08/23 11:00:15;;;;;;;3.58;1.25;;;;;;;27.79;77.95;101520.47;5039143;28;20021;-72
2022/08/23 11:02:47;;;;;;;5.60;1.42;;;;;;;27.78;76.33;101521.41;5059590;28;20029;-73
2022/08/23 11:05:24;;;;;;;6.00;1.60;;;;;;;27.51;75.65;101520.81;5058506;28;20048;-73
2022/08/23 11:08:06;;;;;;;9.45;1.40;;;;;;;27.51;77.01;101519.03;5039497;28;20052;-74
2022/08/23 11:10:40;;;;;;;4.70;1.10;;;;;;;27.84;76.29;101520.28;5036000;28;20163;-74
2022/08/23 11:13:11;;;;;;;3.75;1.10;;;;;;;28.09;75.82;101510.13;5033797;28;20115;-71
2022/08/23 11:16:00;;;;;;;2.95;1.35;;;;;;;28.37;74.14;101525.06;5053945;28;20025;-74
2022/08/23 11:18:42;;;;;;;4.90;1.20;;;;;;;28.52;72.63;101528.84;5052600;28;20067;-73
2022/08/23 11:21:38;;;;;;;2.47;1.25;;;;;;;28.73;70.68;101513.44;5052970;28;20123;-73
2022/08/23 11:24:03;;;;;;;5.20;1.27;;;;;;;28.70;71.51;101520.81;5042636;28;20041;-73
2022/08/23 11:26:30;;;;;;;5.90;1.47;;;;;;;28.70;71.43;101523.53;5051362;28;20025;-73
2022/08/23 11:29:09;;;;;;;6.00;1.15;;;;;;;29.09;68.12;101528.78;5052877;28;20415;-73
2022/08/23 11:32:12;;;;;;;2.85;1.13;;;;;;;29.49;68.89;101531.34;5041264;28;20037;-73
2022/08/23 11:34:49;;;;;;;4.07;0.88;;;;;;;29.58;64.38;101536.25;5044632;28;20025;-73
2022/08/23 11:37:17;;;;;;;3.25;1.02;;;;;;;29.71;66.07;101532.91;5039848;28;20478;-74